sensor_id;sensor_type;location;lat;lon;timestamp;P1;durP1;ratioP1;P2;durP2;ratioP2
42036;SDS011;30340;52.004;5.908;2023-04-25T00:01:21;8.38;;;2.97;;
42036;SDS011;30340;52.004;5.908;2023-04-25T00:03:47;9.60;;;2.97;;
42036;SDS011;30340;52.004;5.908;2023-04-25T00:06:13;8.75;;;2.75;;
42036;SDS011;30340;52.004;5.908;2023-04-25T00:08:39;6.10;;;2.72;;
42036;SDS011;30340;52.004;5.908;2023-04-25T00:11:05;10.02;;;3.10;;
42036;SDS011;30340;52.004;5.908;2023-04-25T00:13:31;6.35;;;2.63;;
42036;SDS011;30340;52.004;5.908;2023-04-25T00:15:56;9.65;;;3.08;;
42036;SDS011;30340;52.004;5.908;2023-04-25T00:18:23;10.73;;;3.28;;
42036;SDS011;30340;52.004;5.908;2023-04-25T00:20:48;8.80;;;3.67;;
42036;SDS011;30340;52.004;5.908;2023-04-25T00:23:14;8.00;;;3.00;;
42036;SDS011;30340;52.004;5.908;2023-04-25T00:25:46;11.38;;;2.90;;
42036;SDS011;30340;52.004;5.908;2023-04-25T00:28:13;7.43;;;2.85;;
42036;SDS011;30340;52.004;5.908;2023-04-25T00:30:39;9.43;;;3.05;;
42036;SDS011;30340;52.004;5.908;2023-04-25T00:33:05;7.32;;;2.85;;
42036;SDS011;30340;52.004;5.908;2023-04-25T00:35:31;7.70;;;3.00;;
42036;SDS011;30340;52.004;5.908;2023-04-25T00:37:57;7.97;;;2.83;;
42036;SDS011;30340;52.004;5.908;2023-04-25T00:40:22;8.27;;;3.00;;
42036;SDS011;30340;52.004;5.908;2023-04-25T00:42:48;6.93;;;2.50;;
42036;SDS011;30340;52.004;5.908;2023-04-25T00:45:16;7.50;;;2.78;;
42036;SDS011;30340;52.004;5.908;2023-04-25T00:47:42;8.95;;;2.75;;
42036;SDS011;30340;52.004;5.908;2023-04-25T00:50:08;7.70;;;2.67;;
42036;SDS011;30340;52.004;5.908;2023-04-25T00:52:34;6.82;;;2.75;;
42036;SDS011;30340;52.004;5.908;2023-04-25T00:55:01;10.55;;;2.75;;
42036;SDS011;30340;52.004;5.908;2023-04-25T00:57:26;7.88;;;2.70;;
42036;SDS011;30340;52.004;5.908;2023-04-25T00:59:53;5.43;;;2.58;;
42036;SDS011;30340;52.004;5.908;2023-04-25T01:02:19;8.57;;;2.72;;
42036;SDS011;30340;52.004;5.908;2023-04-25T01:04:45;10.32;;;3.05;;
42036;SDS011;30340;52.004;5.908;2023-04-25T01:07:12;11.40;;;3.25;;
42036;SDS011;30340;52.004;5.908;2023-04-25T01:09:38;9.13;;;3.33;;
42036;SDS011;30340;52.004;5.908;2023-04-25T01:12:03;8.38;;;2.90;;
42036;SDS011;30340;52.004;5.908;2023-04-25T01:14:29;8.82;;;2.70;;
42036;SDS011;30340;52.004;5.908;2023-04-25T01:16:55;8.77;;;3.17;;
42036;SDS011;30340;52.004;5.908;2023-04-25T01:19:21;7.20;;;3.20;;
42036;SDS011;30340;52.004;5.908;2023-04-25T01:21:46;7.75;;;2.88;;
42036;SDS011;30340;52.004;5.908;2023-04-25T01:24:12;7.63;;;2.63;;
42036;SDS011;30340;52.004;5.908;2023-04-25T01:26:39;9.43;;;3.20;;
42036;SDS011;30340;52.004;5.908;2023-04-25T01:29:09;10.73;;;3.50;;
42036;SDS011;30340;52.004;5.908;2023-04-25T01:31:36;8.02;;;3.40;;
42036;SDS011;30340;52.004;5.908;2023-04-25T01:34:02;9.85;;;3.53;;
42036;SDS011;30340;52.004;5.908;2023-04-25T01:36:28;8.35;;;2.90;;
42036;SDS011;30340;52.004;5.908;2023-04-25T01:38:53;9.98;;;3.20;;
42036;SDS011;30340;52.004;5.908;2023-04-25T01:41:20;8.70;;;3.35;;
42036;SDS011;30340;52.004;5.908;2023-04-25T01:43:48;11.80;;;3.05;;
42036;SDS011;30340;52.004;5.908;2023-04-25T01:46:13;9.18;;;3.17;;
42036;SDS011;30340;52.004;5.908;2023-04-25T01:48:39;10.35;;;3.53;;
42036;SDS011;30340;52.004;5.908;2023-04-25T01:51:05;8.98;;;3.17;;
42036;SDS011;30340;52.004;5.908;2023-04-25T01:53:30;9.32;;;3.30;;
42036;SDS011;30340;52.004;5.908;2023-04-25T01:55:56;7.15;;;2.97;;
42036;SDS011;30340;52.004;5.908;2023-04-25T01:58:22;7.68;;;3.35;;
42036;SDS011;30340;52.004;5.908;2023-04-25T02:00:47;10.45;;;3.22;;
42036;SDS011;30340;52.004;5.908;2023-04-25T02:03:13;6.45;;;2.90;;
42036;SDS011;30340;52.004;5.908;2023-04-25T02:05:39;8.35;;;3.35;;
42036;SDS011;30340;52.004;5.908;2023-04-25T02:08:05;10.30;;;3.05;;
42036;SDS011;30340;52.004;5.908;2023-04-25T02:10:32;8.98;;;3.30;;
42036;SDS011;30340;52.004;5.908;2023-04-25T02:12:58;12.88;;;3.70;;
42036;SDS011;30340;52.004;5.908;2023-04-25T02:15:23;9.13;;;3.30;;
42036;SDS011;30340;52.004;5.908;2023-04-25T02:17:49;8.27;;;3.15;;
42036;SDS011;30340;52.004;5.908;2023-04-25T02:20:17;7.63;;;3.65;;
42036;SDS011;30340;52.004;5.908;2023-04-25T02:22:45;14.52;;;3.58;;
42036;SDS011;30340;52.004;5.908;2023-04-25T02:25:10;9.50;;;3.15;;
42036;SDS011;30340;52.004;5.908;2023-04-25T02:27:36;8.85;;;3.15;;
42036;SDS011;30340;52.004;5.908;2023-04-25T02:30:02;10.43;;;3.17;;
42036;SDS011;30340;52.004;5.908;2023-04-25T02:32:29;11.68;;;3.30;;
42036;SDS011;30340;52.004;5.908;2023-04-25T02:34:55;9.57;;;3.30;;
42036;SDS011;30340;52.004;5.908;2023-04-25T02:37:23;7.95;;;2.80;;
42036;SDS011;30340;52.004;5.908;2023-04-25T02:39:49;9.63;;;3.30;;
42036;SDS011;30340;52.004;5.908;2023-04-25T02:42:14;9.07;;;3.15;;
42036;SDS011;30340;52.004;5.908;2023-04-25T02:44:40;8.05;;;2.67;;
42036;SDS011;30340;52.004;5.908;2023-04-25T02:47:06;11.70;;;3.38;;
42036;SDS011;30340;52.004;5.908;2023-04-25T02:49:31;9.05;;;3.10;;
42036;SDS011;30340;52.004;5.908;2023-04-25T02:51:57;14.23;;;3.65;;
42036;SDS011;30340;52.004;5.908;2023-04-25T02:54:22;8.93;;;3.60;;
42036;SDS011;30340;52.004;5.908;2023-04-25T02:56:48;8.90;;;2.85;;
42036;SDS011;30340;52.004;5.908;2023-04-25T02:59:13;9.25;;;3.10;;
42036;SDS011;30340;52.004;5.908;2023-04-25T03:01:39;11.90;;;3.30;;
42036;SDS011;30340;52.004;5.908;2023-04-25T03:04:04;9.60;;;3.60;;
42036;SDS011;30340;52.004;5.908;2023-04-25T03:06:30;7.25;;;2.75;;
42036;SDS011;30340;52.004;5.908;2023-04-25T03:08:55;8.10;;;3.05;;
42036;SDS011;30340;52.004;5.908;2023-04-25T03:11:21;8.98;;;2.85;;
42036;SDS011;30340;52.004;5.908;2023-04-25T03:13:46;9.13;;;2.85;;
42036;SDS011;30340;52.004;5.908;2023-04-25T03:16:12;8.95;;;3.30;;
42036;SDS011;30340;52.004;5.908;2023-04-25T03:18:38;8.48;;;3.70;;
42036;SDS011;30340;52.004;5.908;2023-04-25T03:21:03;9.32;;;2.95;;
42036;SDS011;30340;52.004;5.908;2023-04-25T03:23:29;8.70;;;3.00;;
42036;SDS011;30340;52.004;5.908;2023-04-25T03:25:55;7.57;;;2.67;;
42036;SDS011;30340;52.004;5.908;2023-04-25T03:28:21;8.25;;;2.60;;
42036;SDS011;30340;52.004;5.908;2023-04-25T03:30:47;6.93;;;2.55;;
42036;SDS011;30340;52.004;5.908;2023-04-25T03:33:12;11.68;;;3.75;;
42036;SDS011;30340;52.004;5.908;2023-04-25T03:35:38;8.20;;;3.08;;
42036;SDS011;30340;52.004;5.908;2023-04-25T03:38:03;10.77;;;3.15;;
42036;SDS011;30340;52.004;5.908;2023-04-25T03:40:29;6.13;;;2.80;;
42036;SDS011;30340;52.004;5.908;2023-04-25T03:42:54;8.13;;;2.63;;
42036;SDS011;30340;52.004;5.908;2023-04-25T03:45:20;9.73;;;3.00;;
42036;SDS011;30340;52.004;5.908;2023-04-25T03:47:45;9.15;;;3.20;;
42036;SDS011;30340;52.004;5.908;2023-04-25T03:50:11;10.07;;;3.10;;
42036;SDS011;30340;52.004;5.908;2023-04-25T03:52:37;5.93;;;2.40;;
42036;SDS011;30340;52.004;5.908;2023-04-25T03:55:02;8.63;;;2.80;;
42036;SDS011;30340;52.004;5.908;2023-04-25T03:57:29;11.48;;;3.28;;
42036;SDS011;30340;52.004;5.908;2023-04-25T03:59:55;6.55;;;2.95;;
42036;SDS011;30340;52.004;5.908;2023-04-25T04:02:20;6.40;;;2.60;;
42036;SDS011;30340;52.004;5.908;2023-04-25T04:04:47;6.80;;;2.75;;
42036;SDS011;30340;52.004;5.908;2023-04-25T04:07:12;11.00;;;3.35;;
42036;SDS011;30340;52.004;5.908;2023-04-25T04:09:38;10.55;;;3.25;;
42036;SDS011;30340;52.004;5.908;2023-04-25T04:12:04;8.85;;;3.00;;
42036;SDS011;30340;52.004;5.908;2023-04-25T04:14:29;12.10;;;3.10;;
42036;SDS011;30340;52.004;5.908;2023-04-25T04:16:55;8.57;;;3.28;;
42036;SDS011;30340;52.004;5.908;2023-04-25T04:19:21;7.20;;;2.63;;
42036;SDS011;30340;52.004;5.908;2023-04-25T04:21:46;6.80;;;2.58;;
42036;SDS011;30340;52.004;5.908;2023-04-25T04:24:12;8.80;;;3.10;;
42036;SDS011;30340;52.004;5.908;2023-04-25T04:26:37;13.38;;;3.22;;
42036;SDS011;30340;52.004;5.908;2023-04-25T04:29:03;10.15;;;2.95;;
42036;SDS011;30340;52.004;5.908;2023-04-25T04:31:29;11.00;;;3.20;;
42036;SDS011;30340;52.004;5.908;2023-04-25T04:33:55;8.77;;;3.00;;
42036;SDS011;30340;52.004;5.908;2023-04-25T04:36:21;9.27;;;3.28;;
42036;SDS011;30340;52.004;5.908;2023-04-25T04:38:48;8.93;;;3.05;;
42036;SDS011;30340;52.004;5.908;2023-04-25T04:41:13;9.10;;;3.30;;
42036;SDS011;30340;52.004;5.908;2023-04-25T04:43:39;9.85;;;3.30;;
42036;SDS011;30340;52.004;5.908;2023-04-25T04:46:04;10.15;;;3.22;;
42036;SDS011;30340;52.004;5.908;2023-04-25T04:48:33;12.38;;;3.30;;
42036;SDS011;30340;52.004;5.908;2023-04-25T04:50:59;7.85;;;3.17;;
42036;SDS011;30340;52.004;5.908;2023-04-25T04:53:25;9.80;;;3.35;;
42036;SDS011;30340;52.004;5.908;2023-04-25T04:55:51;8.73;;;3.10;;
42036;SDS011;30340;52.004;5.908;2023-04-25T04:58:16;9.27;;;3.10;;
42036;SDS011;30340;52.004;5.908;2023-04-25T05:00:42;9.35;;;3.58;;
42036;SDS011;30340;52.004;5.908;2023-04-25T05:03:08;10.93;;;3.72;;
42036;SDS011;30340;52.004;5.908;2023-04-25T05:05:33;8.52;;;3.58;;
42036;SDS011;30340;52.004;5.908;2023-04-25T05:07:59;9.60;;;3.28;;
42036;SDS011;30340;52.004;5.908;2023-04-25T05:10:25;9.98;;;3.28;;
42036;SDS011;30340;52.004;5.908;2023-04-25T05:12:51;8.95;;;3.60;;
42036;SDS011;30340;52.004;5.908;2023-04-25T05:15:16;8.30;;;3.45;;
42036;SDS011;30340;52.004;5.908;2023-04-25T05:17:42;9.30;;;3.65;;
42036;SDS011;30340;52.004;5.908;2023-04-25T05:20:07;10.40;;;4.07;;
42036;SDS011;30340;52.004;5.908;2023-04-25T05:22:34;9.57;;;3.50;;
42036;SDS011;30340;52.004;5.908;2023-04-25T05:25:00;10.02;;;3.58;;
42036;SDS011;30340;52.004;5.908;2023-04-25T05:27:26;7.40;;;3.17;;
42036;SDS011;30340;52.004;5.908;2023-04-25T05:29:51;9.60;;;3.50;;
42036;SDS011;30340;52.004;5.908;2023-04-25T05:32:17;8.85;;;3.40;;
42036;SDS011;30340;52.004;5.908;2023-04-25T05:34:43;10.13;;;3.22;;
42036;SDS011;30340;52.004;5.908;2023-04-25T05:37:08;9.73;;;3.10;;
42036;SDS011;30340;52.004;5.908;2023-04-25T05:39:34;12.07;;;3.33;;
42036;SDS011;30340;52.004;5.908;2023-04-25T05:42:00;8.52;;;3.15;;
42036;SDS011;30340;52.004;5.908;2023-04-25T05:44:26;7.40;;;3.00;;
42036;SDS011;30340;52.004;5.908;2023-04-25T05:46:51;11.40;;;3.55;;
42036;SDS011;30340;52.004;5.908;2023-04-25T05:49:17;6.00;;;3.00;;
42036;SDS011;30340;52.004;5.908;2023-04-25T05:51:42;9.93;;;3.17;;
42036;SDS011;30340;52.004;5.908;2023-04-25T05:54:08;9.82;;;3.20;;
42036;SDS011;30340;52.004;5.908;2023-04-25T05:56:34;5.63;;;2.83;;
42036;SDS011;30340;52.004;5.908;2023-04-25T05:59:00;11.55;;;3.13;;
42036;SDS011;30340;52.004;5.908;2023-04-25T06:01:26;7.60;;;3.05;;
42036;SDS011;30340;52.004;5.908;2023-04-25T06:03:51;10.88;;;3.67;;
42036;SDS011;30340;52.004;5.908;2023-04-25T06:06:17;10.10;;;3.58;;
42036;SDS011;30340;52.004;5.908;2023-04-25T06:08:43;8.25;;;3.17;;
42036;SDS011;30340;52.004;5.908;2023-04-25T06:11:08;6.72;;;3.00;;
42036;SDS011;30340;52.004;5.908;2023-04-25T06:13:34;8.00;;;2.90;;
42036;SDS011;30340;52.004;5.908;2023-04-25T06:16:00;7.50;;;2.85;;
42036;SDS011;30340;52.004;5.908;2023-04-25T06:18:25;9.02;;;2.70;;
42036;SDS011;30340;52.004;5.908;2023-04-25T06:20:51;7.97;;;2.65;;
42036;SDS011;30340;52.004;5.908;2023-04-25T06:23:16;9.38;;;3.30;;
42036;SDS011;30340;52.004;5.908;2023-04-25T06:25:42;8.70;;;3.28;;
42036;SDS011;30340;52.004;5.908;2023-04-25T06:28:07;7.25;;;3.10;;
42036;SDS011;30340;52.004;5.908;2023-04-25T06:30:33;6.45;;;2.90;;
42036;SDS011;30340;52.004;5.908;2023-04-25T06:32:58;8.10;;;3.00;;
42036;SDS011;30340;52.004;5.908;2023-04-25T06:35:24;5.50;;;2.40;;
42036;SDS011;30340;52.004;5.908;2023-04-25T06:37:49;9.80;;;2.63;;
42036;SDS011;30340;52.004;5.908;2023-04-25T06:40:15;6.47;;;2.63;;
42036;SDS011;30340;52.004;5.908;2023-04-25T06:42:42;5.80;;;2.50;;
42036;SDS011;30340;52.004;5.908;2023-04-25T06:45:08;11.38;;;2.65;;
42036;SDS011;30340;52.004;5.908;2023-04-25T06:47:33;7.35;;;2.72;;
42036;SDS011;30340;52.004;5.908;2023-04-25T06:49:59;8.23;;;3.15;;
42036;SDS011;30340;52.004;5.908;2023-04-25T06:52:24;7.95;;;2.95;;
42036;SDS011;30340;52.004;5.908;2023-04-25T06:54:50;7.20;;;2.67;;
42036;SDS011;30340;52.004;5.908;2023-04-25T06:57:15;7.97;;;2.88;;
42036;SDS011;30340;52.004;5.908;2023-04-25T06:59:41;7.30;;;2.80;;
42036;SDS011;30340;52.004;5.908;2023-04-25T07:02:07;9.27;;;2.88;;
42036;SDS011;30340;52.004;5.908;2023-04-25T07:04:32;7.53;;;2.72;;
42036;SDS011;30340;52.004;5.908;2023-04-25T07:06:58;7.40;;;2.85;;
42036;SDS011;30340;52.004;5.908;2023-04-25T07:09:25;9.57;;;3.03;;
42036;SDS011;30340;52.004;5.908;2023-04-25T07:11:51;8.63;;;3.08;;
42036;SDS011;30340;52.004;5.908;2023-04-25T07:14:16;7.53;;;3.15;;
42036;SDS011;30340;52.004;5.908;2023-04-25T07:16:42;6.35;;;3.20;;
42036;SDS011;30340;52.004;5.908;2023-04-25T07:19:08;7.20;;;2.60;;
42036;SDS011;30340;52.004;5.908;2023-04-25T07:21:33;7.60;;;2.90;;
42036;SDS011;30340;52.004;5.908;2023-04-25T07:23:59;8.10;;;2.97;;
42036;SDS011;30340;52.004;5.908;2023-04-25T07:26:24;5.93;;;2.70;;
42036;SDS011;30340;52.004;5.908;2023-04-25T07:28:50;5.07;;;2.53;;
42036;SDS011;30340;52.004;5.908;2023-04-25T07:31:19;7.88;;;2.80;;
42036;SDS011;30340;52.004;5.908;2023-04-25T07:33:44;7.53;;;3.00;;
42036;SDS011;30340;52.004;5.908;2023-04-25T07:36:10;6.30;;;2.60;;
42036;SDS011;30340;52.004;5.908;2023-04-25T07:38:37;5.15;;;2.30;;
42036;SDS011;30340;52.004;5.908;2023-04-25T07:41:03;6.82;;;2.30;;
42036;SDS011;30340;52.004;5.908;2023-04-25T07:43:29;8.80;;;2.40;;
42036;SDS011;30340;52.004;5.908;2023-04-25T07:45:55;7.47;;;2.70;;
42036;SDS011;30340;52.004;5.908;2023-04-25T07:48:21;5.32;;;2.05;;
42036;SDS011;30340;52.004;5.908;2023-04-25T07:50:47;5.63;;;2.13;;
42036;SDS011;30340;52.004;5.908;2023-04-25T07:53:12;5.32;;;2.10;;
42036;SDS011;30340;52.004;5.908;2023-04-25T07:55:38;5.22;;;1.80;;
42036;SDS011;30340;52.004;5.908;2023-04-25T07:58:05;4.25;;;1.65;;
42036;SDS011;30340;52.004;5.908;2023-04-25T08:00:31;5.10;;;1.85;;
42036;SDS011;30340;52.004;5.908;2023-04-25T08:02:57;6.45;;;2.00;;
42036;SDS011;30340;52.004;5.908;2023-04-25T08:05:22;6.22;;;2.17;;
42036;SDS011;30340;52.004;5.908;2023-04-25T08:07:48;5.43;;;1.85;;
42036;SDS011;30340;52.004;5.908;2023-04-25T08:10:13;5.75;;;1.90;;
42036;SDS011;30340;52.004;5.908;2023-04-25T08:12:39;7.88;;;1.88;;
42036;SDS011;30340;52.004;5.908;2023-04-25T08:15:05;4.88;;;1.63;;
42036;SDS011;30340;52.004;5.908;2023-04-25T08:17:31;4.78;;;1.80;;
42036;SDS011;30340;52.004;5.908;2023-04-25T08:19:56;4.50;;;1.50;;
42036;SDS011;30340;52.004;5.908;2023-04-25T08:22:22;5.28;;;1.85;;
42036;SDS011;30340;52.004;5.908;2023-04-25T08:24:48;5.55;;;1.80;;
42036;SDS011;30340;52.004;5.908;2023-04-25T08:27:13;4.07;;;1.50;;
42036;SDS011;30340;52.004;5.908;2023-04-25T08:29:39;4.20;;;1.65;;
42036;SDS011;30340;52.004;5.908;2023-04-25T08:32:05;4.60;;;1.63;;
42036;SDS011;30340;52.004;5.908;2023-04-25T08:34:30;5.55;;;1.70;;
42036;SDS011;30340;52.004;5.908;2023-04-25T08:36:56;5.32;;;1.80;;
42036;SDS011;30340;52.004;5.908;2023-04-25T08:39:21;5.25;;;2.00;;
42036;SDS011;30340;52.004;5.908;2023-04-25T08:41:47;4.85;;;1.90;;
42036;SDS011;30340;52.004;5.908;2023-04-25T08:44:12;5.90;;;1.52;;
42036;SDS011;30340;52.004;5.908;2023-04-25T08:46:40;5.53;;;1.80;;
42036;SDS011;30340;52.004;5.908;2023-04-25T08:49:06;7.53;;;1.90;;
42036;SDS011;30340;52.004;5.908;2023-04-25T08:51:36;5.63;;;2.03;;
42036;SDS011;30340;52.004;5.908;2023-04-25T08:54:12;5.15;;;1.63;;
42036;SDS011;30340;52.004;5.908;2023-04-25T08:56:38;4.80;;;1.50;;
42036;SDS011;30340;52.004;5.908;2023-04-25T08:59:06;4.22;;;1.45;;
42036;SDS011;30340;52.004;5.908;2023-04-25T09:01:33;4.97;;;1.77;;
42036;SDS011;30340;52.004;5.908;2023-04-25T09:04:00;5.90;;;1.63;;
42036;SDS011;30340;52.004;5.908;2023-04-25T09:06:26;2.95;;;1.15;;
42036;SDS011;30340;52.004;5.908;2023-04-25T09:08:53;4.43;;;1.40;;
42036;SDS011;30340;52.004;5.908;2023-04-25T09:11:19;2.80;;;1.50;;
42036;SDS011;30340;52.004;5.908;2023-04-25T09:13:45;6.05;;;1.52;;
42036;SDS011;30340;52.004;5.908;2023-04-25T09:16:11;3.45;;;1.55;;
42036;SDS011;30340;52.004;5.908;2023-04-25T09:18:36;5.82;;;1.50;;
42036;SDS011;30340;52.004;5.908;2023-04-25T09:21:06;4.55;;;1.30;;
42036;SDS011;30340;52.004;5.908;2023-04-25T09:23:44;6.38;;;1.63;;
42036;SDS011;30340;52.004;5.908;2023-04-25T09:26:13;6.57;;;1.67;;
42036;SDS011;30340;52.004;5.908;2023-04-25T09:28:40;5.45;;;1.60;;
42036;SDS011;30340;52.004;5.908;2023-04-25T09:31:09;5.32;;;1.88;;
42036;SDS011;30340;52.004;5.908;2023-04-25T09:33:35;5.15;;;1.33;;
42036;SDS011;30340;52.004;5.908;2023-04-25T09:36:02;4.95;;;1.48;;
42036;SDS011;30340;52.004;5.908;2023-04-25T09:38:45;3.85;;;1.40;;
42036;SDS011;30340;52.004;5.908;2023-04-25T09:41:11;4.38;;;1.23;;
42036;SDS011;30340;52.004;5.908;2023-04-25T09:43:38;3.60;;;1.40;;
42036;SDS011;30340;52.004;5.908;2023-04-25T09:46:10;3.72;;;1.45;;
42036;SDS011;30340;52.004;5.908;2023-04-25T09:48:36;5.13;;;1.40;;
42036;SDS011;30340;52.004;5.908;2023-04-25T09:53:35;5.78;;;1.40;;
42036;SDS011;30340;52.004;5.908;2023-04-25T09:56:06;2.92;;;1.20;;
42036;SDS011;30340;52.004;5.908;2023-04-25T09:58:34;4.85;;;1.40;;
42036;SDS011;30340;52.004;5.908;2023-04-25T10:01:01;3.50;;;1.80;;
42036;SDS011;30340;52.004;5.908;2023-04-25T10:03:32;2.38;;;1.50;;
42036;SDS011;30340;52.004;5.908;2023-04-25T10:05:59;5.30;;;1.90;;
42036;SDS011;30340;52.004;5.908;2023-04-25T10:08:34;3.45;;;1.52;;
42036;SDS011;30340;52.004;5.908;2023-04-25T10:11:01;4.70;;;1.50;;
42036;SDS011;30340;52.004;5.908;2023-04-25T10:13:31;6.20;;;1.60;;
42036;SDS011;30340;52.004;5.908;2023-04-25T10:15:58;2.97;;;1.30;;
42036;SDS011;30340;52.004;5.908;2023-04-25T10:18:25;3.38;;;1.40;;
42036;SDS011;30340;52.004;5.908;2023-04-25T10:20:53;5.30;;;1.48;;
42036;SDS011;30340;52.004;5.908;2023-04-25T10:23:21;4.43;;;1.40;;
42036;SDS011;30340;52.004;5.908;2023-04-25T10:25:48;3.67;;;1.45;;
42036;SDS011;30340;52.004;5.908;2023-04-25T10:28:15;3.00;;;1.30;;
42036;SDS011;30340;52.004;5.908;2023-04-25T10:31:02;6.80;;;1.30;;
42036;SDS011;30340;52.004;5.908;2023-04-25T10:33:34;3.95;;;1.40;;
42036;SDS011;30340;52.004;5.908;2023-04-25T10:36:11;4.78;;;1.48;;
42036;SDS011;30340;52.004;5.908;2023-04-25T10:38:37;5.55;;;1.80;;
42036;SDS011;30340;52.004;5.908;2023-04-25T10:41:08;3.50;;;1.50;;
42036;SDS011;30340;52.004;5.908;2023-04-25T10:43:39;3.90;;;1.33;;
42036;SDS011;30340;52.004;5.908;2023-04-25T10:46:13;5.65;;;1.55;;
42036;SDS011;30340;52.004;5.908;2023-04-25T10:52:13;4.45;;;1.30;;
42036;SDS011;30340;52.004;5.908;2023-04-25T10:54:52;4.43;;;1.73;;
42036;SDS011;30340;52.004;5.908;2023-04-25T10:57:26;3.67;;;1.52;;
42036;SDS011;30340;52.004;5.908;2023-04-25T10:59:54;3.13;;;1.35;;
42036;SDS011;30340;52.004;5.908;2023-04-25T11:02:24;4.30;;;1.20;;
42036;SDS011;30340;52.004;5.908;2023-04-25T11:04:53;5.68;;;1.50;;
42036;SDS011;30340;52.004;5.908;2023-04-25T11:07:23;3.75;;;1.40;;
42036;SDS011;30340;52.004;5.908;2023-04-25T11:09:57;4.40;;;1.40;;
42036;SDS011;30340;52.004;5.908;2023-04-25T11:12:25;2.97;;;1.30;;
42036;SDS011;30340;52.004;5.908;2023-04-25T11:14:57;6.70;;;1.42;;
42036;SDS011;30340;52.004;5.908;2023-04-25T11:17:24;4.35;;;1.42;;
42036;SDS011;30340;52.004;5.908;2023-04-25T11:19:50;3.50;;;1.20;;
42036;SDS011;30340;52.004;5.908;2023-04-25T11:22:16;3.88;;;1.30;;
42036;SDS011;30340;52.004;5.908;2023-04-25T11:24:41;4.15;;;1.65;;
42036;SDS011;30340;52.004;5.908;2023-04-25T11:27:07;3.63;;;1.17;;
42036;SDS011;30340;52.004;5.908;2023-04-25T11:29:34;2.50;;;1.20;;
42036;SDS011;30340;52.004;5.908;2023-04-25T11:32:00;2.58;;;1.25;;
42036;SDS011;30340;52.004;5.908;2023-04-25T11:34:27;4.20;;;1.30;;
42036;SDS011;30340;52.004;5.908;2023-04-25T11:36:58;1.80;;;1.02;;
42036;SDS011;30340;52.004;5.908;2023-04-25T11:39:24;3.20;;;1.25;;
42036;SDS011;30340;52.004;5.908;2023-04-25T11:41:51;2.10;;;1.10;;
42036;SDS011;30340;52.004;5.908;2023-04-25T11:44:17;3.67;;;1.10;;
42036;SDS011;30340;52.004;5.908;2023-04-25T11:46:44;2.53;;;1.10;;
42036;SDS011;30340;52.004;5.908;2023-04-25T11:49:10;4.00;;;1.08;;
42036;SDS011;30340;52.004;5.908;2023-04-25T11:51:43;3.17;;;1.13;;
42036;SDS011;30340;52.004;5.908;2023-04-25T11:54:10;4.70;;;1.20;;
42036;SDS011;30340;52.004;5.908;2023-04-25T11:56:36;4.18;;;1.10;;
42036;SDS011;30340;52.004;5.908;2023-04-25T11:59:03;2.80;;;1.50;;
42036;SDS011;30340;52.004;5.908;2023-04-25T12:01:31;2.50;;;1.27;;
42036;SDS011;30340;52.004;5.908;2023-04-25T12:03:58;3.00;;;1.25;;
42036;SDS011;30340;52.004;5.908;2023-04-25T12:06:38;2.80;;;1.10;;
42036;SDS011;30340;52.004;5.908;2023-04-25T12:09:07;3.72;;;1.40;;
42036;SDS011;30340;52.004;5.908;2023-04-25T12:11:43;5.47;;;1.40;;
42036;SDS011;30340;52.004;5.908;2023-04-25T12:14:10;3.42;;;1.30;;
42036;SDS011;30340;52.004;5.908;2023-04-25T12:16:43;2.70;;;1.20;;
42036;SDS011;30340;52.004;5.908;2023-04-25T12:19:13;3.92;;;1.30;;
42036;SDS011;30340;52.004;5.908;2023-04-25T12:21:39;3.40;;;1.35;;
42036;SDS011;30340;52.004;5.908;2023-04-25T12:24:12;2.90;;;1.45;;
42036;SDS011;30340;52.004;5.908;2023-04-25T12:26:47;4.22;;;1.50;;
42036;SDS011;30340;52.004;5.908;2023-04-25T12:29:19;2.75;;;1.10;;
42036;SDS011;30340;52.004;5.908;2023-04-25T12:31:48;5.32;;;1.33;;
42036;SDS011;30340;52.004;5.908;2023-04-25T12:34:14;2.97;;;1.20;;
42036;SDS011;30340;52.004;5.908;2023-04-25T12:36:40;5.05;;;1.50;;
42036;SDS011;30340;52.004;5.908;2023-04-25T12:39:06;4.18;;;1.50;;
42036;SDS011;30340;52.004;5.908;2023-04-25T12:41:32;3.95;;;1.33;;
42036;SDS011;30340;52.004;5.908;2023-04-25T12:43:58;3.45;;;1.35;;
42036;SDS011;30340;52.004;5.908;2023-04-25T12:46:24;5.95;;;1.30;;
42036;SDS011;30340;52.004;5.908;2023-04-25T12:48:50;3.13;;;1.52;;
42036;SDS011;30340;52.004;5.908;2023-04-25T12:51:15;5.10;;;1.52;;
42036;SDS011;30340;52.004;5.908;2023-04-25T12:53:41;3.08;;;1.20;;
42036;SDS011;30340;52.004;5.908;2023-04-25T12:56:07;5.97;;;1.75;;
42036;SDS011;30340;52.004;5.908;2023-04-25T12:58:33;7.22;;;1.27;;
42036;SDS011;30340;52.004;5.908;2023-04-25T13:00:59;5.25;;;1.77;;
42036;SDS011;30340;52.004;5.908;2023-04-25T13:03:25;3.10;;;1.40;;
42036;SDS011;30340;52.004;5.908;2023-04-25T13:05:50;3.20;;;1.40;;
42036;SDS011;30340;52.004;5.908;2023-04-25T13:08:17;3.88;;;1.48;;
42036;SDS011;30340;52.004;5.908;2023-04-25T13:10:43;5.03;;;1.98;;
42036;SDS011;30340;52.004;5.908;2023-04-25T13:13:09;5.55;;;1.63;;
42036;SDS011;30340;52.004;5.908;2023-04-25T13:15:35;3.85;;;1.33;;
42036;SDS011;30340;52.004;5.908;2023-04-25T13:18:01;3.95;;;1.20;;
42036;SDS011;30340;52.004;5.908;2023-04-25T13:20:28;3.72;;;1.10;;
42036;SDS011;30340;52.004;5.908;2023-04-25T13:22:53;2.95;;;1.00;;
42036;SDS011;30340;52.004;5.908;2023-04-25T13:25:20;2.83;;;1.10;;
42036;SDS011;30340;52.004;5.908;2023-04-25T13:27:46;2.65;;;1.30;;
42036;SDS011;30340;52.004;5.908;2023-04-25T13:30:12;3.38;;;1.27;;
42036;SDS011;30340;52.004;5.908;2023-04-25T13:32:38;3.50;;;1.17;;
42036;SDS011;30340;52.004;5.908;2023-04-25T13:35:04;5.10;;;1.60;;
42036;SDS011;30340;52.004;5.908;2023-04-25T13:37:32;5.10;;;1.35;;
42036;SDS011;30340;52.004;5.908;2023-04-25T13:40:01;5.38;;;1.60;;
42036;SDS011;30340;52.004;5.908;2023-04-25T13:42:30;3.80;;;1.48;;
42036;SDS011;30340;52.004;5.908;2023-04-25T13:44:56;3.15;;;1.25;;
42036;SDS011;30340;52.004;5.908;2023-04-25T13:47:22;2.50;;;1.10;;
42036;SDS011;30340;52.004;5.908;2023-04-25T13:49:48;2.28;;;1.00;;
42036;SDS011;30340;52.004;5.908;2023-04-25T13:52:14;5.47;;;1.30;;
42036;SDS011;30340;52.004;5.908;2023-04-25T13:54:39;3.15;;;1.33;;
42036;SDS011;30340;52.004;5.908;2023-04-25T13:57:05;3.78;;;1.23;;
42036;SDS011;30340;52.004;5.908;2023-04-25T13:59:31;2.83;;;1.10;;
42036;SDS011;30340;52.004;5.908;2023-04-25T14:01:57;3.70;;;1.15;;
42036;SDS011;30340;52.004;5.908;2023-04-25T14:04:23;3.20;;;1.17;;
42036;SDS011;30340;52.004;5.908;2023-04-25T14:06:48;3.45;;;1.33;;
42036;SDS011;30340;52.004;5.908;2023-04-25T14:09:15;3.00;;;1.35;;
42036;SDS011;30340;52.004;5.908;2023-04-25T14:11:40;3.17;;;1.40;;
42036;SDS011;30340;52.004;5.908;2023-04-25T14:14:06;4.50;;;1.42;;
42036;SDS011;30340;52.004;5.908;2023-04-25T14:16:31;3.38;;;1.15;;
42036;SDS011;30340;52.004;5.908;2023-04-25T14:18:57;6.63;;;1.52;;
42036;SDS011;30340;52.004;5.908;2023-04-25T14:21:23;2.92;;;1.38;;
42036;SDS011;30340;52.004;5.908;2023-04-25T14:23:49;3.65;;;1.63;;
42036;SDS011;30340;52.004;5.908;2023-04-25T14:26:14;2.90;;;1.20;;
42036;SDS011;30340;52.004;5.908;2023-04-25T14:28:41;4.40;;;1.50;;
42036;SDS011;30340;52.004;5.908;2023-04-25T14:31:06;3.15;;;1.30;;
42036;SDS011;30340;52.004;5.908;2023-04-25T14:33:32;3.08;;;1.30;;
42036;SDS011;30340;52.004;5.908;2023-04-25T14:35:58;1.95;;;0.98;;
42036;SDS011;30340;52.004;5.908;2023-04-25T14:38:23;2.45;;;1.30;;
42036;SDS011;30340;52.004;5.908;2023-04-25T14:40:50;3.80;;;1.38;;
42036;SDS011;30340;52.004;5.908;2023-04-25T14:43:16;3.47;;;1.40;;
42036;SDS011;30340;52.004;5.908;2023-04-25T14:45:41;2.50;;;1.02;;
42036;SDS011;30340;52.004;5.908;2023-04-25T14:48:07;3.28;;;1.35;;